Janesville, WI

10:54 PM CST on December 21, 2014 (GMT -0600)
Read Road | Change Station
CLOSE
Current Station
Personal Weather Station
Location: Janesville, WI
Elevation: 851 ft
Nearby Weather Stations

Elev 851 ft 42.61 °N, 88.99 °W | Updated 4 minutes ago

Overcast
Overcast
34.1 °F
Feels Like 27 °F
N
9.0
Wind Variable Wind from WSW
Gusts 9.0 mph

Today
High -- | Low -- °F
--% Chance of Precip.
Yesterday
High -- | Low -- °F
Precip. -- in
7:23 AM 4:25 PM
New Moon, 0% visible
Pressure 29.98 in
Visibility 10.0 miles
Clouds Scattered Clouds 2400 ft
Overcast 3300 ft
Windchill 27 °F
Dew Point 31 °F
Humidity 89%
Rainfall 0.00 in
Snow Depth Not available.
UV 10.7 out of 12
Pollen .10 out of 12
Air Quality Not available.
Flu Activity Not available.
METAR KJVL 220435Z AUTO 16011G15KT 10SM SCT024 OVC033 02/00 A2998 RMK AO2

More Conditions Fewer Conditions

Pressure 29.98 in
Visibility 10.0 miles
Clouds Scattered Clouds 2400 ft
Overcast 3300 ft
Windchill 27 °F
Dew Point 31 °F
Humidity 89%
Rainfall 0.00 in
Snow Depth Not available.
UV 10.7 out of 12
Pollen .10 out of 12
Air Quality Not available.
Flu Activity Not available.
METAR KJVL 220435Z AUTO 16011G15KT 10SM SCT024 OVC033 02/00 A2998 RMK AO2

More Conditions Fewer Conditions

10-Day Weather Forecast

Almanac

Astronomy

Dec. 21, 2014 Rise Set
Actual Time
Civil Twilight
Nautical Twilight
Astronomical Twilight
Moon
Length of Visible Light
Length of Day
Tomorrow will be .
, % of the Moon is Illuminated

Today's Extremes

State Highs State Lows

Community

WunderPhotos

Upload Photos

1,779,540 photos uploaded!

WunderBlogs® & News

Nearby

Air Quality

  Air Quality AQ Index Pollutant
Not available.

Snow Depth

Station Depth Elevation

Earthquake Activity

City Distance Mag. Time & Date
Minimum magnitude displayed is 2.5.

Coastal Water Temperatures

Place Temperature

Nearby Weather Stations